Maldives Meteorological Service

SYNOP

Station Code SYNOP
43555
AAXX 27184 43555 11459 70708 10278 20233 30128 40130 60001 70522 82202 333 58004 82818 87077=
43533
AAXX 27184 43533 11458 70905 10280 20230 30130 40132 60001 70522 8227/ 333 58007 82817 86362=
43577
AAXX 27184 43577 12460 60205 10274 20230 30128 40130 60001 82242 333 58002 82818 86077=
43588
AAXX 27184 43588 11459 70205 10282 20248 30128 40129 69901 70282 83932 333 59001 82817 81918 87362 =
43599
AAXX 27184 43599 12460 73609 10279 20261 30126 40128 60001 8326/ 333 59007 83818 86361=
Last Updated : 2020-01-27 23:00:30